Time;durP1;ratioP1;P1;durP2;ratioP2;P2;SDS_P1;SDS_P2;PMS_P1;PMS_P2;Temp;Humidity;BMP_temperature;BMP_pressure;BME280_temperature;BME280_humidity;BME280_pressure;Samples;Min_cycle;Max_cycle;Signal;HPM_P1;HPM_P2
2021/05/07 00:01:07;;;;;;;7.73;2.67;;;;;;;9.24;50.55;100455.91;6139219;28;20239;-55
2021/05/07 00:04:28;;;;;;;9.83;3.33;;;;;;;9.16;50.80;100452.50;6140364;28;20227;-56
2021/05/07 00:07:49;;;;;;;5.43;2.50;;;;;;;9.20;50.81;100451.59;6141892;28;20235;-57
2021/05/07 00:11:14;;;;;;;6.73;3.37;;;;;;;8.86;51.43;100459.69;6135392;28;20242;-56
2021/05/07 00:14:34;;;;;;;5.47;2.30;;;;;;;8.96;51.59;100463.09;6142524;28;20223;-58
2021/05/07 00:17:54;;;;;;;6.00;3.47;;;;;;;8.77;51.50;100461.50;6123055;28;20247;-56
2021/05/07 00:21:16;;;;;;;4.20;2.07;;;;;;;8.73;51.71;100462.41;6137652;28;20649;-57
2021/05/07 00:24:36;;;;;;;3.17;1.93;;;;;;;8.74;52.16;100459.78;6140919;28;20227;-56
2021/05/07 00:28:01;;;;;;;5.53;2.00;;;;;;;8.73;52.64;100465.84;6134613;28;20896;-57
2021/05/07 00:31:21;;;;;;;4.57;2.07;;;;;;;8.93;51.93;100467.44;6141080;28;20524;-57
2021/05/07 00:34:41;;;;;;;4.87;1.80;;;;;;;8.92;51.74;100466.59;6140233;28;20235;-57
2021/05/07 00:38:04;;;;;;;4.87;3.27;;;;;;;8.92;52.56;100469.19;6143495;28;20400;-55
2021/05/07 00:41:24;;;;;;;2.50;1.97;;;;;;;8.84;52.60;100465.75;6145514;28;21085;-54
2021/05/07 00:44:45;;;;;;;4.50;2.53;;;;;;;8.73;52.99;100473.63;6146918;28;20226;-53
2021/05/07 00:48:10;;;;;;;5.20;2.33;;;;;;;8.82;52.75;100468.38;6142555;28;20235;-58
2021/05/07 00:51:31;;;;;;;3.83;1.73;;;;;;;8.83;51.85;100472.69;6143097;28;20239;-56
2021/05/07 00:54:52;;;;;;;4.80;2.00;;;;;;;9.00;51.37;100467.38;6141133;28;20551;-57
2021/05/07 00:58:13;;;;;;;3.73;2.40;;;;;;;9.16;51.35;100459.44;6151641;28;20231;-57
2021/05/07 01:01:34;;;;;;;6.60;3.17;;;;;;;9.12;51.54;100473.34;6141096;28;20342;-55
2021/05/07 01:04:54;;;;;;;5.60;1.83;;;;;;;9.05;51.45;100475.13;6141562;28;20242;-59
2021/05/07 01:08:18;;;;;;;4.30;2.13;;;;;;;9.10;51.09;100469.91;6152665;28;20223;-55
2021/05/07 01:11:45;;;;;;;7.47;3.33;;;;;;;9.07;51.63;100465.56;6142113;28;20239;-56
2021/05/07 01:15:09;;;;;;;6.20;3.40;;;;;;;9.09;51.32;100474.22;6139163;28;20231;-55
2021/05/07 01:18:29;;;;;;;6.00;2.00;;;;;;;9.19;50.91;100468.09;6113655;28;20311;-57
2021/05/07 01:21:50;;;;;;;3.33;2.20;;;;;;;9.29;50.03;100460.22;6142516;28;20228;-59
2021/05/07 01:25:13;;;;;;;6.20;2.77;;;;;;;9.12;50.55;100465.56;6127376;28;20361;-56
2021/05/07 01:28:35;;;;;;;5.47;2.60;;;;;;;9.13;50.47;100455.16;6141370;28;20266;-59
2021/05/07 01:31:56;;;;;;;4.67;2.00;;;;;;;9.27;50.97;100450.69;6135591;28;20520;-58
2021/05/07 01:35:19;;;;;;;5.87;2.17;;;;;;;9.22;50.79;100454.19;6149954;28;20289;-58
2021/05/07 01:38:41;;;;;;;3.67;1.90;;;;;;;9.26;50.93;100446.34;6155399;28;20227;-58
2021/05/07 01:42:03;;;;;;;3.43;2.20;;;;;;;9.19;51.46;100455.09;6155498;28;20240;-56
2021/05/07 01:45:27;;;;;;;6.67;2.80;;;;;;;9.12;51.49;100456.03;6139884;28;20593;-56
2021/05/07 01:48:48;;;;;;;4.53;2.50;;;;;;;9.19;52.11;100462.91;6136394;28;20506;-59
2021/05/07 01:52:09;;;;;;;4.07;2.00;;;;;;;9.17;51.51;100462.03;6153952;28;20254;-58
2021/05/07 01:55:33;;;;;;;5.27;2.87;;;;;;;9.11;51.35;100456.03;6141751;28;20239;-58
2021/05/07 01:58:53;;;;;;;4.10;2.33;;;;;;;9.09;51.00;100469.03;6128631;28;20239;-60
2021/05/07 02:02:14;;;;;;;5.17;2.50;;;;;;;9.22;50.58;100464.59;6134015;28;20238;-56
2021/05/07 02:05:35;;;;;;;4.10;2.27;;;;;;;9.25;50.77;100477.56;6137033;28;21205;-58
2021/05/07 02:08:58;;;;;;;4.07;2.43;;;;;;;9.07;51.01;100476.84;6146730;28;20246;-60
2021/05/07 02:12:19;;;;;;;3.43;2.03;;;;;;;9.18;50.83;100483.69;6129714;28;20749;-57
2021/05/07 02:15:40;;;;;;;3.83;2.03;;;;;;;9.23;51.29;100466.31;6140616;28;20223;-56
2021/05/07 02:19:04;;;;;;;6.40;2.53;;;;;;;8.87;52.34;100478.72;6138909;28;20612;-58
2021/05/07 02:22:25;;;;;;;7.03;2.90;;;;;;;8.92;52.57;100486.47;6138544;28;20841;-57
2021/05/07 02:25:45;;;;;;;7.67;2.30;;;;;;;9.16;51.17;100483.69;6136526;28;20319;-54
2021/05/07 02:29:16;;;;;;;4.23;2.07;;;;;;;9.24;51.16;100491.41;6143567;28;20231;-55
2021/05/07 02:32:37;;;;;;;4.53;2.43;;;;;;;9.02;51.52;100489.00;6140546;28;20235;-56
2021/05/07 02:35:58;;;;;;;2.63;1.80;;;;;;;8.89;51.45;100496.91;6153651;28;20235;-58
2021/05/07 02:39:18;;;;;;;5.50;2.57;;;;;;;8.86;51.46;100498.66;6140975;28;20231;-55
2021/05/07 02:42:39;;;;;;;5.47;2.80;;;;;;;8.91;51.58;100501.22;6147079;28;20325;-55
2021/05/07 02:46:01;;;;;;;7.07;3.93;;;;;;;8.80;51.61;100498.69;6137525;28;20345;-57
2021/05/07 02:49:21;;;;;;;4.60;1.87;;;;;;;8.94;51.76;100501.19;6133321;28;20235;-59
2021/05/07 02:52:42;;;;;;;6.37;2.20;;;;;;;8.91;51.22;100496.00;6150403;28;20243;-58
2021/05/07 02:56:03;;;;;;;3.97;2.27;;;;;;;8.80;51.44;100497.81;6129118;28;20259;-55
2021/05/07 02:59:26;;;;;;;6.07;2.10;;;;;;;8.94;51.97;100500.34;6121980;28;20231;-56
2021/05/07 03:02:47;;;;;;;6.43;2.20;;;;;;;9.07;50.98;100507.13;6131191;28;20585;-55
2021/05/07 03:06:07;;;;;;;8.83;2.17;;;;;;;8.70;52.18;100504.81;6129173;28;20266;-57
2021/05/07 03:09:28;;;;;;;5.37;3.40;;;;;;;8.09;53.44;100504.22;6135048;28;20510;-57
2021/05/07 03:12:49;;;;;;;2.87;2.50;;;;;;;8.12;53.13;100507.66;6137047;28;20235;-54
2021/05/07 03:16:09;;;;;;;7.50;2.03;;;;;;;8.10;53.56;100510.25;6140068;28;20317;-53
2021/05/07 03:19:30;;;;;;;3.57;1.90;;;;;;;8.14;53.51;100511.13;6139993;28;20263;-56
2021/05/07 03:22:51;;;;;;;2.80;1.80;;;;;;;8.19;53.79;100524.94;6143499;28;20231;-55
2021/05/07 03:26:12;;;;;;;7.83;2.40;;;;;;;8.03;54.46;100525.00;6138265;28;20627;-54
2021/05/07 03:29:32;;;;;;;3.00;2.50;;;;;;;8.04;54.90;100528.44;6142553;28;20262;-59
2021/05/07 03:32:52;;;;;;;6.37;2.77;;;;;;;7.44;57.28;100546.69;6135440;28;20243;-56
2021/05/07 03:36:14;;;;;;;8.67;3.33;;;;;;;7.61;57.67;100539.78;6145791;28;20679;-57
2021/05/07 03:39:34;;;;;;;5.37;2.47;;;;;;;7.52;57.74;100544.97;6139963;28;20235;-58
2021/05/07 03:42:55;;;;;;;14.63;3.00;;;;;;;6.96;59.86;100553.56;6144031;28;20266;-57
2021/05/07 03:46:15;;;;;;;3.40;2.40;;;;;;;6.74;60.68;100561.31;6142693;28;20227;-57
2021/05/07 03:49:35;;;;;;;3.37;2.17;;;;;;;7.41;59.38;100559.69;6140014;28;20310;-55
2021/05/07 03:52:57;;;;;;;8.13;2.67;;;;;;;6.78;60.98;100570.78;6129755;28;20254;-55
2021/05/07 03:56:17;;;;;;;4.07;2.67;;;;;;;7.44;60.27;100572.59;6130330;28;20231;-55
2021/05/07 03:59:37;;;;;;;3.37;2.30;;;;;;;7.12;60.62;100580.38;6135869;28;20258;-57
2021/05/07 04:02:58;;;;;;;6.33;2.20;;;;;;;7.20;61.00;100584.69;6141667;28;20251;-53
2021/05/07 04:06:20;;;;;;;5.87;2.50;;;;;;;6.96;62.29;100595.88;6131039;28;20231;-56
2021/05/07 04:09:45;;;;;;;4.37;2.20;;;;;;;7.06;62.34;100595.03;6123914;28;20243;-55
2021/05/07 04:16:44;;;;;;;4.67;2.10;;;;;;;6.92;64.34;100611.38;6141653;28;20326;-57
2021/05/07 04:20:07;;;;;;;5.23;2.07;;;;;;;5.92;65.05;100610.03;6134098;28;20633;-57
2021/05/07 04:23:27;;;;;;;5.07;2.00;;;;;;;5.78;63.83;100605.63;6138507;28;20342;-56
2021/05/07 04:26:48;;;;;;;4.27;2.50;;;;;;;6.28;64.17;100610.28;6139510;28;20235;-56
2021/05/07 04:30:11;;;;;;;3.40;2.20;;;;;;;6.18;63.85;100611.09;6140923;28;20239;-54
2021/05/07 04:33:31;;;;;;;2.43;1.90;;;;;;;6.41;64.99;100609.47;6142149;28;20656;-56
2021/05/07 04:36:53;;;;;;;3.30;2.13;;;;;;;6.49;64.41;100618.16;6141173;28;20231;-56
2021/05/07 04:40:15;;;;;;;3.60;1.83;;;;;;;6.59;63.36;100613.91;6137806;28;20330;-54
2021/05/07 04:43:36;;;;;;;2.30;2.10;;;;;;;6.71;63.68;100623.44;6136757;28;20247;-56
2021/05/07 04:46:59;;;;;;;4.20;2.50;;;;;;;7.41;61.44;100627.88;6139836;28;20314;-54
2021/05/07 04:50:21;;;;;;;3.80;2.30;;;;;;;6.65;64.00;100628.56;6143867;28;20343;-53
2021/05/07 04:53:42;;;;;;;4.03;2.70;;;;;;;6.87;63.43;100630.38;6142805;28;20254;-57
2021/05/07 04:57:02;;;;;;;3.97;3.00;;;;;;;7.05;63.78;100646.81;6143531;28;20321;-55
2021/05/07 05:00:24;;;;;;;4.50;3.60;;;;;;;7.26;62.30;100649.44;6137735;28;20235;-58
2021/05/07 05:03:44;;;;;;;6.47;5.27;;;;;;;7.26;62.53;100651.19;6142003;28;20235;-55
2021/05/07 05:07:07;;;;;;;4.53;2.60;;;;;;;7.69;61.21;100641.72;6143667;28;20227;-59
2021/05/07 05:10:28;;;;;;;2.87;2.53;;;;;;;7.65;61.62;100652.09;6139510;28;20239;-57
2021/05/07 05:13:48;;;;;;;3.63;2.83;;;;;;;6.78;65.26;100656.22;6141520;28;20235;-55
2021/05/07 05:17:10;;;;;;;5.27;3.80;;;;;;;7.10;65.12;100660.66;6129464;28;20772;-57
2021/05/07 05:20:30;;;;;;;4.07;2.77;;;;;;;6.84;65.42;100669.22;6138825;28;20242;-61
2021/05/07 05:23:50;;;;;;;5.80;3.30;;;;;;;7.10;65.10;100668.41;6143653;28;20224;-56
2021/05/07 05:27:12;;;;;;;3.77;3.10;;;;;;;7.21;64.15;100676.19;6143910;28;20231;-57
2021/05/07 05:30:32;;;;;;;6.97;4.43;;;;;;;7.35;64.05;100678.81;6142693;28;20330;-58
2021/05/07 05:33:53;;;;;;;3.30;2.40;;;;;;;7.36;63.52;100683.16;6146189;28;20242;-54
2021/05/07 05:37:13;;;;;;;5.20;3.30;;;;;;;7.07;64.74;100686.53;6135175;28;20263;-56
2021/05/07 05:40:34;;;;;;;3.00;2.70;;;;;;;7.20;64.87;100684.84;6136855;28;20247;-56
2021/05/07 05:43:55;;;;;;;5.67;3.17;;;;;;;6.95;65.27;100695.13;6133306;28;20495;-55
2021/05/07 05:47:15;;;;;;;5.33;3.87;;;;;;;6.96;65.14;100693.38;6139420;28;20239;-52
2021/05/07 05:50:37;;;;;;;5.53;4.70;;;;;;;6.96;65.78;100698.56;6143005;28;20223;-54
2021/05/07 05:53:58;;;;;;;3.63;3.00;;;;;;;7.09;65.26;100695.16;6141266;28;22525;-56
2021/05/07 05:57:19;;;;;;;3.47;3.17;;;;;;;7.14;64.78;100701.22;6132776;28;20262;-56
2021/05/07 06:00:40;;;;;;;3.70;2.57;;;;;;;7.24;66.45;100692.63;6133897;28;20239;-52
2021/05/07 06:04:00;;;;;;;8.43;4.20;;;;;;;7.59;63.92;100696.16;6141790;28;20270;-54
2021/05/07 06:07:21;;;;;;;4.53;3.57;;;;;;;7.68;63.61;100704.78;6140567;28;20231;-57
2021/05/07 06:10:42;;;;;;;4.97;3.77;;;;;;;7.98;61.85;100702.22;6139209;28;20310;-55
2021/05/07 06:14:02;;;;;;;3.60;2.70;;;;;;;8.14;60.44;100695.28;6135310;28;20334;-57
2021/05/07 06:17:22;;;;;;;5.57;3.43;;;;;;;7.58;61.91;100709.94;6127841;28;20247;-53
2021/05/07 06:20:43;;;;;;;4.80;2.67;;;;;;;7.47;62.12;100715.13;6135347;28;20636;-53
2021/05/07 06:24:05;;;;;;;3.87;2.33;;;;;;;7.86;60.96;100718.63;6133079;28;20323;-55
2021/05/07 06:27:26;;;;;;;3.47;2.67;;;;;;;8.55;59.40;100720.31;6137469;28;20227;-56
2021/05/07 06:30:47;;;;;;;5.23;2.97;;;;;;;8.31;60.27;100721.22;6141693;28;20284;-54
2021/05/07 06:34:07;;;;;;;4.00;2.80;;;;;;;7.34;62.84;100728.91;6138532;28;20265;-56
2021/05/07 06:37:28;;;;;;;3.10;2.00;;;;;;;7.00;64.14;100726.19;6141280;28;20223;-59
2021/05/07 06:40:50;;;;;;;3.67;2.20;;;;;;;7.03;63.30;100728.81;6145331;28;20239;-54
2021/05/07 06:44:10;;;;;;;9.40;3.43;;;;;;;7.24;62.98;100722.84;6131972;28;20246;-55
2021/05/07 06:47:31;;;;;;;4.30;2.90;;;;;;;7.89;60.88;100731.63;6137902;28;20231;-58
2021/05/07 06:50:51;;;;;;;4.67;2.30;;;;;;;7.00;63.42;100728.78;6141966;28;20235;-54
2021/05/07 06:54:12;;;;;;;5.40;2.63;;;;;;;8.05;60.58;100735.94;6143082;28;20220;-55
2021/05/07 06:57:33;;;;;;;6.00;2.63;;;;;;;7.40;63.30;100742.75;6142054;28;20540;-57
2021/05/07 07:00:53;;;;;;;4.77;2.67;;;;;;;6.38;65.95;100763.78;6139702;28;20263;-56
2021/05/07 07:04:14;;;;;;;5.87;2.73;;;;;;;6.90;66.15;100761.53;6137872;28;20235;-55
2021/05/07 07:07:36;;;;;;;4.27;3.33;;;;;;;7.27;64.83;100754.81;6138809;28;20568;-56
2021/05/07 07:10:58;;;;;;;3.60;3.00;;;;;;;7.13;65.26;100761.63;6139639;28;20235;-55
2021/05/07 07:14:20;;;;;;;4.13;3.50;;;;;;;7.59;63.86;100764.38;6137853;28;20235;-56
2021/05/07 07:17:41;;;;;;;4.97;3.40;;;;;;;7.72;64.26;100761.84;6128909;28;20231;-54
2021/05/07 07:21:01;;;;;;;3.47;2.93;;;;;;;7.96;62.12;100774.81;6137016;28;20231;-56
2021/05/07 07:24:22;;;;;;;4.10;3.53;;;;;;;8.33;61.19;100768.78;6133239;28;20235;-59
2021/05/07 07:27:43;;;;;;;3.53;3.23;;;;;;;8.38;61.29;100773.09;6137946;28;20650;-56
2021/05/07 07:31:04;;;;;;;3.00;2.80;;;;;;;8.23;61.86;100773.13;6137780;28;20230;-57
2021/05/07 07:34:26;;;;;;;4.33;3.93;;;;;;;7.41;63.51;100778.16;6143145;28;20239;-56
2021/05/07 07:37:46;;;;;;;4.03;3.10;;;;;;;8.43;60.89;100784.38;6137543;28;20234;-55
2021/05/07 07:41:07;;;;;;;6.13;2.73;;;;;;;8.83;58.81;100771.31;6140512;28;20231;-57
2021/05/07 07:44:28;;;;;;;4.60;2.30;;;;;;;9.32;55.99;100766.81;6138924;28;20234;-55
2021/05/07 07:47:49;;;;;;;2.90;2.00;;;;;;;9.65;55.00;100777.06;6132164;28;20239;-57
2021/05/07 07:51:09;;;;;;;3.43;2.10;;;;;;;9.72;54.68;100780.47;6140862;28;20533;-59
2021/05/07 07:54:30;;;;;;;3.20;2.13;;;;;;;10.59;54.80;100785.91;6135389;28;20231;-56
2021/05/07 07:57:51;;;;;;;4.40;2.17;;;;;;;10.63;53.75;100788.47;6138048;28;20585;-54
2021/05/07 08:01:12;;;;;;;3.27;1.97;;;;;;;10.54;54.71;100790.28;6137352;28;20243;-53
2021/05/07 08:04:33;;;;;;;3.70;2.37;;;;;;;10.27;53.61;100792.22;6136333;28;20330;-52
2021/05/07 08:07:57;;;;;;;2.23;2.03;;;;;;;10.52;55.52;100798.09;6136662;28;20696;-53
2021/05/07 08:11:18;;;;;;;4.10;1.60;;;;;;;11.00;52.25;100795.03;6134434;28;20255;-57
2021/05/07 08:14:38;;;;;;;4.20;2.03;;;;;;;10.39;51.87;100802.56;6132089;28;20239;-57
2021/05/07 08:17:59;;;;;;;2.97;2.13;;;;;;;11.26;50.57;100792.09;6137532;28;20234;-55
2021/05/07 08:21:20;;;;;;;2.80;1.50;;;;;;;9.92;53.12;100805.50;6122874;28;20230;-53
2021/05/07 08:24:42;;;;;;;2.40;1.83;;;;;;;10.00;53.05;100820.19;6137071;28;20247;-58
2021/05/07 08:28:03;;;;;;;1.20;1.10;;;;;;;7.96;58.71;100844.84;6138720;28;20619;-57
2021/05/07 08:31:23;;;;;;;2.07;1.23;;;;;;;7.73;61.37;100846.50;6142884;28;20255;-54
2021/05/07 08:34:45;;;;;;;2.27;1.60;;;;;;;8.05;60.97;100854.38;6140894;28;20232;-57
2021/05/07 08:38:08;;;;;;;1.40;1.30;;;;;;;8.01;59.65;100863.03;6136240;28;20234;-57
2021/05/07 08:41:28;;;;;;;3.00;1.10;;;;;;;8.32;58.29;100871.72;6141920;28;20838;-55
2021/05/07 08:44:50;;;;;;;3.37;1.80;;;;;;;8.92;56.94;100881.25;6143140;28;20250;-57
2021/05/07 08:48:11;;;;;;;3.13;1.40;;;;;;;8.45;58.21;100881.28;6142670;28;20322;-54
2021/05/07 08:51:32;;;;;;;3.17;2.90;;;;;;;8.38;58.51;100874.31;6143676;28;20239;-59
2021/05/07 08:54:55;;;;;;;1.33;0.90;;;;;;;8.53;56.31;100875.22;6140198;28;20255;-54
2021/05/07 08:58:17;;;;;;;3.63;1.33;;;;;;;8.80;57.66;100875.22;6131430;28;20239;-54
2021/05/07 09:01:42;;;;;;;1.13;1.03;;;;;;;8.69;57.18;100886.47;6140468;28;20628;-56
2021/05/07 09:05:03;;;;;;;1.40;1.30;;;;;;;7.54;61.36;100882.75;6144633;28;20231;-54
2021/05/07 09:08:32;;;;;;;2.13;1.30;;;;;;;8.27;60.34;100879.47;6141172;28;20507;-54
2021/05/07 09:11:55;;;;;;;1.77;1.40;;;;;;;8.54;59.02;100883.00;6140269;28;20222;-55
2021/05/07 09:15:16;;;;;;;3.07;1.20;;;;;;;8.66;58.62;100880.41;6140457;28;20685;-57
2021/05/07 09:18:43;;;;;;;2.27;1.30;;;;;;;9.35;57.94;100875.97;6136539;28;20235;-58
2021/05/07 09:22:04;;;;;;;2.07;1.40;;;;;;;10.22;56.63;100890.31;6143855;28;20259;-56
2021/05/07 09:25:24;;;;;;;1.67;1.30;;;;;;;10.62;53.60;100883.09;6138671;28;20520;-57
2021/05/07 09:28:52;;;;;;;2.30;1.20;;;;;;;11.02;51.76;100889.69;6139966;28;20235;-58
2021/05/07 09:32:12;;;;;;;2.03;1.60;;;;;;;9.24;56.64;100895.03;6139239;28;20318;-56
2021/05/07 09:35:33;;;;;;;2.10;2.00;;;;;;;9.55;55.59;100915.75;6131009;28;20299;-58
2021/05/07 09:38:56;;;;;;;3.10;1.90;;;;;;;9.94;53.13;100902.59;6141554;28;20235;-55
2021/05/07 09:42:21;;;;;;;2.60;1.80;;;;;;;10.38;53.49;100904.97;6142164;28;20223;-57
2021/05/07 09:45:46;;;;;;;1.50;1.10;;;;;;;10.00;53.90;100905.16;6141618;28;20239;-57
2021/05/07 09:49:08;;;;;;;1.77;1.43;;;;;;;10.43;52.72;100908.41;6141106;28;20688;-59
2021/05/07 09:52:28;;;;;;;2.17;1.10;;;;;;;9.98;53.07;100914.72;6141786;28;20239;-55
2021/05/07 09:55:51;;;;;;;2.20;1.17;;;;;;;8.81;56.37;100922.81;6132882;28;20632;-56
2021/05/07 09:59:12;;;;;;;2.37;1.40;;;;;;;9.44;55.79;100925.31;6134479;28;20230;-56
2021/05/07 10:02:34;;;;;;;1.60;1.50;;;;;;;9.08;56.15;100929.72;6149589;28;20231;-57
2021/05/07 10:05:54;;;;;;;2.37;1.60;;;;;;;8.96;56.59;100935.81;6142778;28;20235;-56
2021/05/07 10:09:23;;;;;;;3.67;1.40;;;;;;;8.81;57.86;100951.38;6142735;28;20231;-57
2021/05/07 10:12:46;;;;;;;1.80;1.63;;;;;;;8.72;59.63;100961.75;6138155;28;20235;-57
2021/05/07 10:16:07;;;;;;;15.17;2.90;;;;;;;8.26;61.09;100960.78;6138097;28;20322;-57
2021/05/07 10:19:40;;;;;;;1.73;1.53;;;;;;;8.85;60.22;100964.34;6134209;28;20239;-51
2021/05/07 10:23:13;;;;;;;2.63;1.80;;;;;;;9.20;59.18;100965.22;6138152;28;21366;-53
2021/05/07 10:26:36;;;;;;;3.07;1.70;;;;;;;9.95;58.16;100958.97;6139212;28;20235;-53
2021/05/07 10:29:59;;;;;;;3.00;2.37;;;;;;;10.53;57.02;100960.44;6137434;28;20625;-57
2021/05/07 10:33:20;;;;;;;1.57;1.40;;;;;;;10.84;56.02;100961.94;6141958;28;20251;-56
2021/05/07 10:36:43;;;;;;;2.17;1.97;;;;;;;10.85;55.34;100960.19;6141222;28;20531;-56
2021/05/07 10:40:05;;;;;;;1.77;1.20;;;;;;;9.52;57.02;100959.97;6138360;28;20235;-57
2021/05/07 10:43:35;;;;;;;2.77;1.87;;;;;;;9.97;56.02;100965.88;6138781;28;20227;-58
2021/05/07 10:47:06;;;;;;;2.20;1.87;;;;;;;9.46;57.23;100979.06;6135262;28;20536;-53
2021/05/07 10:50:26;;;;;;;2.47;1.80;;;;;;;9.33;57.14;100977.34;6136497;28;20330;-54
2021/05/07 10:53:48;;;;;;;3.87;1.57;;;;;;;10.23;55.55;100977.91;6139754;28;20322;-52
2021/05/07 10:57:18;;;;;;;2.33;1.63;;;;;;;10.87;57.01;100991.44;6129616;28;20625;-55
2021/05/07 11:00:39;;;;;;;1.40;1.30;;;;;;;11.79;49.96;100991.44;6133301;28;20230;-57
2021/05/07 11:04:05;;;;;;;2.73;1.50;;;;;;;11.73;47.86;100991.53;6128535;28;20230;-57
2021/05/07 11:07:27;;;;;;;3.20;1.30;;;;;;;11.88;47.68;100990.47;6138333;28;20227;-60
2021/05/07 11:10:49;;;;;;;2.73;1.17;;;;;;;11.57;44.54;100996.03;6140687;28;20231;-57
2021/05/07 11:14:12;;;;;;;2.07;0.80;;;;;;;12.96;41.68;100986.41;6135553;28;20231;-55
2021/05/07 11:17:33;;;;;;;3.07;1.17;;;;;;;12.70;40.00;100992.06;6138319;28;20239;-54
2021/05/07 11:20:53;;;;;;;3.90;1.57;;;;;;;12.68;39.93;100993.78;6137782;28;20586;-55
2021/05/07 11:24:14;;;;;;;1.07;0.70;;;;;;;12.68;38.19;100978.13;6127755;28;20266;-57
2021/05/07 11:27:37;;;;;;;1.40;1.30;;;;;;;12.33;40.37;100993.44;6144875;28;20239;-56
2021/05/07 11:30:58;;;;;;;1.00;0.90;;;;;;;11.98;39.38;100992.13;6133091;28;20226;-52
2021/05/07 11:34:24;;;;;;;2.90;1.37;;;;;;;11.96;40.88;101006.94;6139918;28;21072;-56
2021/05/07 11:37:44;;;;;;;2.30;1.37;;;;;;;11.40;42.36;101014.47;6130463;28;20235;-58
2021/05/07 11:41:16;;;;;;;2.80;1.27;;;;;;;10.96;42.35;101017.44;6137963;28;20243;-54
2021/05/07 11:44:48;;;;;;;2.93;1.37;;;;;;;11.12;42.67;101018.19;6136855;28;20247;-55
2021/05/07 11:48:10;;;;;;;1.70;1.33;;;;;;;12.10;41.60;101018.97;6138311;28;20549;-56
2021/05/07 11:51:30;;;;;;;2.50;1.00;;;;;;;12.32;39.77;101014.34;6137550;28;20226;-57
2021/05/07 11:54:51;;;;;;;1.63;1.13;;;;;;;13.14;38.11;101009.66;6136978;28;20416;-56
2021/05/07 11:58:12;;;;;;;1.37;1.27;;;;;;;13.27;36.63;101017.28;6130200;28;20263;-53
2021/05/07 12:01:35;;;;;;;1.57;1.03;;;;;;;12.61;38.34;101019.16;6133152;28;20242;-57
2021/05/07 12:04:56;;;;;;;1.70;1.20;;;;;;;12.30;39.51;101030.03;6119801;28;20231;-55
2021/05/07 12:08:26;;;;;;;3.60;2.20;;;;;;;12.47;37.73;101023.72;6130842;28;20231;-55
2021/05/07 12:11:55;;;;;;;2.50;2.30;;;;;;;13.12;35.86;101037.53;6136299;28;20238;-56
2021/05/07 12:15:17;;;;;;;1.70;1.27;;;;;;;13.94;34.83;101018.69;6135697;28;20231;-58
2021/05/07 12:18:46;;;;;;;3.67;1.20;;;;;;;11.67;37.61;101032.44;6138778;28;20243;-54
2021/05/07 12:22:07;;;;;;;2.03;1.40;;;;;;;12.07;37.92;101043.34;6142139;28;20226;-53
2021/05/07 12:25:28;;;;;;;1.73;1.00;;;;;;;11.74;41.11;101055.84;6138186;28;20227;-55
2021/05/07 12:28:54;;;;;;;2.33;1.73;;;;;;;11.29;43.39;101063.22;6136706;28;20329;-57
2021/05/07 12:32:14;;;;;;;3.00;1.57;;;;;;;10.91;44.59;101084.34;6133387;28;20231;-51
2021/05/07 12:35:43;;;;;;;5.60;1.30;;;;;;;10.56;46.20;101090.59;6138344;28;20548;-60
2021/05/07 12:39:08;;;;;;;5.03;2.27;;;;;;;10.54;47.32;101103.63;6133207;28;20239;-56
2021/05/07 12:42:28;;;;;;;2.27;1.43;;;;;;;9.88;48.70;101115.94;6139277;28;20243;-57
2021/05/07 12:45:50;;;;;;;3.17;1.30;;;;;;;9.92;48.21;101115.94;6133782;28;20259;-57
2021/05/07 12:49:11;;;;;;;3.83;1.10;;;;;;;9.60;47.42;101121.19;6137089;28;20870;-57
2021/05/07 12:52:36;;;;;;;1.93;1.73;;;;;;;9.67;47.56;101130.69;6137180;28;20232;-54
2021/05/07 12:55:56;;;;;;;1.17;1.00;;;;;;;9.76;48.07;101128.09;6135180;28;20236;-57
2021/05/07 12:59:17;;;;;;;4.17;1.63;;;;;;;10.07;48.79;101142.81;6130819;28;20243;-57
2021/05/07 13:02:37;;;;;;;3.67;1.93;;;;;;;10.32;48.52;101136.69;6137012;28;20240;-57
2021/05/07 13:05:58;;;;;;;3.33;2.07;;;;;;;10.42;48.89;101141.00;6147843;28;20242;-55
2021/05/07 13:09:19;;;;;;;3.57;1.57;;;;;;;11.42;46.69;101137.00;6137344;28;20235;-54
2021/05/07 13:12:40;;;;;;;2.43;1.20;;;;;;;11.47;46.28;101134.34;6139485;28;20258;-54
2021/05/07 13:16:00;;;;;;;3.30;1.63;;;;;;;11.51;45.78;101141.28;6137275;28;20369;-57
2021/05/07 13:19:20;;;;;;;4.40;2.13;;;;;;;11.45;46.57;101139.59;6146371;28;21958;-57
2021/05/07 13:22:41;;;;;;;3.87;1.57;;;;;;;10.52;47.56;101144.44;6141010;28;20282;-57
2021/05/07 13:26:02;;;;;;;3.27;1.60;;;;;;;10.68;47.50;101152.19;6130437;28;20517;-55
2021/05/07 13:29:23;;;;;;;4.83;3.83;;;;;;;10.94;47.48;101152.09;6128859;28;20861;-58
2021/05/07 13:32:44;;;;;;;5.67;1.90;;;;;;;10.68;47.48;101152.19;6138878;28;20236;-56
2021/05/07 13:36:05;;;;;;;1.43;1.30;;;;;;;10.63;47.79;101147.00;6145473;28;20253;-56
2021/05/07 13:39:26;;;;;;;4.17;2.23;;;;;;;10.48;48.70;101144.47;6145645;28;20259;-56
2021/05/07 13:42:47;;;;;;;6.67;2.00;;;;;;;10.23;49.09;101154.91;6156289;28;20235;-56
2021/05/07 13:46:08;;;;;;;3.53;1.30;;;;;;;11.45;46.59;101142.19;6137802;28;20488;-55
2021/05/07 13:49:28;;;;;;;8.10;1.80;;;;;;;13.66;42.42;101164.03;6145948;28;20231;-53
2021/05/07 13:52:48;;;;;;;2.73;1.53;;;;;;;16.65;35.39;101148.63;6144063;28;20235;-57
2021/05/07 13:56:09;;;;;;;4.83;1.27;;;;;;;16.21;36.72;101142.84;6135505;28;20243;-56
2021/05/07 13:59:30;;;;;;;4.50;2.53;;;;;;;14.60;39.30;101150.13;6141858;28;20235;-56
2021/05/07 14:02:51;;;;;;;2.97;2.10;;;;;;;17.26;35.04;101145.91;6142073;28;20239;-57
2021/05/07 14:06:11;;;;;;;3.83;1.30;;;;;;;16.27;35.27;101154.94;6139786;28;20750;-54
2021/05/07 14:09:32;;;;;;;2.60;1.33;;;;;;;15.13;37.11;101150.72;6142969;28;20640;-58
2021/05/07 14:12:53;;;;;;;2.77;1.13;;;;;;;14.89;36.53;101140.78;6126991;28;20235;-54
2021/05/07 14:16:14;;;;;;;2.47;1.37;;;;;;;15.52;35.48;101152.44;6140774;28;20235;-54
2021/05/07 14:19:35;;;;;;;1.33;1.20;;;;;;;14.07;34.79;101160.69;6139223;28;20547;-54
2021/05/07 14:22:55;;;;;;;3.07;1.30;;;;;;;15.25;32.56;101167.94;6155089;28;20230;-56
2021/05/07 14:26:16;;;;;;;5.13;0.90;;;;;;;14.90;32.43;101172.19;6138449;28;20234;-55
2021/05/07 14:29:37;;;;;;;3.33;1.10;;;;;;;13.87;34.01;101163.66;6142064;28;20498;-53
2021/05/07 14:32:58;;;;;;;1.03;0.83;;;;;;;14.04;32.14;101162.53;6143067;28;20235;-57
2021/05/07 14:36:18;;;;;;;1.73;0.80;;;;;;;14.04;32.48;101170.38;6145298;28;20286;-57
2021/05/07 14:39:41;;;;;;;2.03;1.07;;;;;;;13.99;33.10;101178.31;6141415;28;20239;-57
2021/05/07 14:43:04;;;;;;;8.07;5.07;;;;;;;13.53;35.11;101189.53;6131220;28;20235;-57
2021/05/07 14:46:25;;;;;;;3.73;2.30;;;;;;;13.25;34.68;101195.13;6137097;28;20258;-53
2021/05/07 14:49:46;;;;;;;2.77;2.00;;;;;;;13.93;34.53;101187.13;6135751;28;20292;-55
2021/05/07 14:53:07;;;;;;;4.43;1.17;;;;;;;13.22;35.03;101194.31;6139993;28;20239;-57
2021/05/07 14:56:27;;;;;;;2.33;1.90;;;;;;;13.81;34.18;101184.72;6128362;28;20231;-56
2021/05/07 14:59:48;;;;;;;2.17;0.93;;;;;;;13.00;34.94;101192.84;6140189;28;20234;-57
2021/05/07 15:03:09;;;;;;;1.07;0.80;;;;;;;13.43;34.41;101201.03;6134212;28;20314;-54
2021/05/07 15:06:31;;;;;;;6.83;3.63;;;;;;;14.31;33.42;101206.56;6135795;28;20262;-57
2021/05/07 15:09:52;;;;;;;3.53;3.23;;;;;;;14.81;32.38;101203.00;6136490;28;20275;-57
2021/05/07 15:13:12;;;;;;;1.50;1.40;;;;;;;13.87;32.76;101204.72;6143426;28;20239;-56
2021/05/07 15:16:33;;;;;;;3.67;1.43;;;;;;;13.79;33.46;101202.22;6141258;28;20322;-57
2021/05/07 15:19:55;;;;;;;2.43;1.57;;;;;;;13.54;33.54;101207.81;6138886;28;20239;-55
2021/05/07 15:23:16;;;;;;;1.77;1.37;;;;;;;13.65;33.45;101209.41;6138756;28;20234;-57
2021/05/07 15:26:37;;;;;;;1.87;1.27;;;;;;;13.82;34.23;101217.84;6133521;28;20255;-56
2021/05/07 15:29:57;;;;;;;5.60;1.33;;;;;;;12.41;33.84;101217.94;6135019;28;20254;-56
2021/05/07 15:33:18;;;;;;;3.70;1.10;;;;;;;13.23;31.72;101232.66;6143937;28;20517;-58
2021/05/07 15:36:38;;;;;;;1.90;1.30;;;;;;;12.95;31.21;101226.03;6142667;28;20231;-51
2021/05/07 15:40:02;;;;;;;1.27;1.03;;;;;;;13.45;30.82;101234.13;6131479;28;20252;-58
2021/05/07 15:43:22;;;;;;;3.83;2.10;;;;;;;13.55;31.09;101224.38;6138241;28;20242;-58
2021/05/07 15:46:43;;;;;;;2.63;1.83;;;;;;;13.55;31.87;101227.88;6140705;28;20262;-55